createdAt,value
2022-12-12T00:01:39.530Z,1.89
2022-12-12T00:04:06.957Z,1.93
2022-12-12T00:06:34.363Z,1.85
2022-12-12T00:09:01.894Z,1.80
2022-12-12T00:11:29.835Z,1.71
2022-12-12T00:13:57.732Z,1.77
2022-12-12T00:16:25.792Z,1.90
2022-12-12T00:18:54.278Z,1.88
2022-12-12T00:21:28.811Z,1.88
2022-12-12T00:23:57.418Z,1.67
2022-12-12T00:26:26.217Z,1.59
2022-12-12T00:28:54.161Z,1.54
2022-12-12T00:31:22.013Z,1.57
2022-12-12T00:33:50.383Z,1.57
2022-12-12T00:36:19.835Z,1.66
2022-12-12T00:38:48.510Z,1.52
2022-12-12T00:41:16.417Z,1.49
2022-12-12T00:43:44.036Z,1.41
2022-12-12T00:46:17.404Z,1.36
2022-12-12T00:48:45.147Z,1.34
2022-12-12T00:51:17.633Z,1.32
2022-12-12T00:53:45.235Z,1.25
2022-12-12T00:56:15.671Z,1.23
2022-12-12T00:58:43.175Z,1.12
2022-12-12T01:01:13.725Z,1.36
2022-12-12T01:03:42.596Z,1.21
2022-12-12T01:06:11.098Z,1.21
2022-12-12T01:08:39.736Z,1.20
2022-12-12T01:11:10.134Z,1.12
2022-12-12T01:13:38.226Z,1.27
2022-12-12T01:16:07.438Z,1.28
2022-12-12T01:18:35.643Z,1.13
2022-12-12T01:21:03.748Z,1.20
2022-12-12T01:23:31.177Z,1.24
2022-12-12T01:26:03.727Z,1.18
2022-12-12T01:28:31.237Z,1.33
2022-12-12T01:30:58.650Z,1.30
2022-12-12T01:33:26.603Z,1.35
2022-12-12T01:35:54.096Z,1.26
2022-12-12T01:38:21.634Z,1.23
2022-12-12T01:40:49.004Z,1.26
2022-12-12T01:43:18.200Z,1.28
2022-12-12T01:45:57.535Z,0.85
2022-12-12T01:48:33.884Z,0.91
2022-12-12T01:51:04.680Z,1.05
2022-12-12T01:53:33.669Z,1.16
2022-12-12T01:56:04.656Z,0.84
2022-12-12T01:58:34.026Z,0.99
2022-12-12T02:01:02.284Z,0.90
2022-12-12T02:03:29.787Z,0.95
2022-12-12T02:06:02.674Z,0.77
2022-12-12T02:08:31.116Z,0.82
2022-12-12T02:10:58.839Z,0.67
2022-12-12T02:13:30.680Z,0.72
2022-12-12T02:16:04.125Z,0.78
2022-12-12T02:18:48.262Z,0.74
2022-12-12T02:21:36.263Z,0.77
2022-12-12T02:24:32.968Z,0.96
2022-12-12T02:27:14.805Z,1.07
2022-12-12T02:30:03.230Z,1.14
2022-12-12T02:32:50.476Z,0.90
2022-12-12T02:35:37.910Z,0.75
2022-12-12T02:38:26.329Z,0.88
2022-12-12T02:41:05.690Z,0.93
2022-12-12T02:43:59.115Z,0.86
2022-12-12T02:46:33.166Z,0.91
2022-12-12T02:49:05.990Z,0.92
2022-12-12T02:51:35.121Z,1.03
2022-12-12T02:54:05.403Z,0.96
2022-12-12T02:56:47.751Z,0.88
2022-12-12T02:59:28.309Z,1.05
2022-12-12T03:02:26.713Z,1.04
2022-12-12T03:05:57.615Z,1.12
2022-12-12T03:08:34.006Z,1.00
2022-12-12T03:11:12.591Z,0.75
2022-12-12T03:13:51.984Z,0.59
2022-12-12T03:16:39.497Z,0.44
2022-12-12T03:19:21.056Z,0.46
2022-12-12T03:21:53.732Z,0.46
2022-12-12T03:24:30.195Z,0.36
2022-12-12T03:27:05.188Z,0.21
2022-12-12T03:29:38.498Z,0.27
2022-12-12T03:32:14.363Z,0.22
2022-12-12T03:34:50.390Z,0.07
2022-12-12T03:37:26.011Z,0.06
2022-12-12T03:39:59.292Z,-0.03
2022-12-12T03:42:31.763Z,-0.31
2022-12-12T03:45:05.339Z,-0.11
2022-12-12T03:47:39.770Z,-0.40
2022-12-12T03:50:24.601Z,-0.27
2022-12-12T03:52:55.044Z,-0.20
2022-12-12T03:55:31.503Z,-0.22
2022-12-12T03:58:04.285Z,0.02
2022-12-12T04:00:37.375Z,-0.07
2022-12-12T04:03:36.793Z,-0.49
2022-12-12T04:06:31.848Z,-0.44
2022-12-12T04:09:21.966Z,-0.44
2022-12-12T04:12:25.130Z,-0.45
2022-12-12T04:15:03.809Z,-0.28
2022-12-12T04:17:42.769Z,-0.24
2022-12-12T04:20:39.312Z,-0.28
2022-12-12T04:23:24.507Z,-0.49
2022-12-12T04:26:38.333Z,-0.34
2022-12-12T04:29:26.951Z,-0.30
2022-12-12T04:32:13.021Z,-0.36
2022-12-12T04:34:57.648Z,-0.47
2022-12-12T04:37:29.368Z,-0.61
2022-12-12T04:40:00.819Z,-0.90
2022-12-12T04:42:30.502Z,-0.70
2022-12-12T04:45:05.130Z,-0.62
2022-12-12T04:47:35.266Z,-0.76
2022-12-12T04:50:04.201Z,-0.75
2022-12-12T04:52:34.294Z,-1.00
2022-12-12T04:55:14.092Z,-1.21
2022-12-12T04:57:45.500Z,-1.20
2022-12-12T05:00:14.278Z,-1.10
2022-12-12T05:02:50.056Z,-1.03
2022-12-12T05:05:32.159Z,-1.25
2022-12-12T05:08:21.512Z,-1.27
2022-12-12T05:10:54.204Z,-1.12
2022-12-12T05:13:27.399Z,-1.20
2022-12-12T05:15:57.375Z,-1.12
2022-12-12T05:18:24.716Z,-0.97
2022-12-12T05:20:52.131Z,-1.28
2022-12-12T05:23:19.878Z,-1.56
2022-12-12T05:25:47.276Z,-1.73
2022-12-12T05:28:14.683Z,-1.54
2022-12-12T05:30:42.080Z,-1.50
2022-12-12T05:33:09.371Z,-1.41
2022-12-12T05:35:36.783Z,-1.57
2022-12-12T05:38:04.289Z,-1.33
2022-12-12T05:40:31.616Z,-1.14
2022-12-12T05:42:58.999Z,-1.23
2022-12-12T05:45:26.294Z,-1.42
2022-12-12T05:47:53.662Z,-1.28
2022-12-12T05:50:20.986Z,-1.10
2022-12-12T05:52:48.417Z,-1.33
2022-12-12T05:55:15.940Z,-1.34
2022-12-12T05:57:43.410Z,-1.29
2022-12-12T06:00:11.060Z,-1.28
2022-12-12T06:02:39.245Z,-1.15
2022-12-12T06:05:07.402Z,-1.32
2022-12-12T06:07:34.833Z,-1.34
2022-12-12T06:10:02.509Z,-1.26
2022-12-12T06:12:30.016Z,-1.21
2022-12-12T06:14:57.419Z,-1.17
2022-12-12T06:17:29.695Z,-1.23
2022-12-12T06:20:00.572Z,-1.19
2022-12-12T06:22:28.555Z,-1.34
2022-12-12T06:24:57.420Z,-1.13
2022-12-12T06:27:24.806Z,-0.99
2022-12-12T06:29:52.202Z,-0.97
2022-12-12T06:32:19.686Z,-0.99
2022-12-12T06:34:47.051Z,-0.93
2022-12-12T06:37:17.343Z,-1.16
2022-12-12T06:39:45.180Z,-1.15
2022-12-12T06:42:14.979Z,-1.11
2022-12-12T06:44:42.466Z,-1.14
2022-12-12T06:47:09.995Z,-1.09
2022-12-12T06:49:37.493Z,-1.13
2022-12-12T06:52:05.078Z,-1.17
2022-12-12T06:54:32.665Z,-1.15
2022-12-12T06:57:00.241Z,-1.16
2022-12-12T06:59:29.540Z,-1.33
2022-12-12T07:01:57.539Z,-1.45
2022-12-12T07:04:25.886Z,-1.36
2022-12-12T07:06:53.739Z,-1.29
2022-12-12T07:09:21.110Z,-1.50
2022-12-12T07:11:48.494Z,-1.44
2022-12-12T07:14:15.990Z,-1.26
2022-12-12T07:16:43.492Z,-1.36
2022-12-12T07:19:10.849Z,-1.12
2022-12-12T07:21:38.468Z,-1.00
2022-12-12T07:24:05.969Z,-0.96
2022-12-12T07:26:33.439Z,-0.93
2022-12-12T07:29:03.751Z,-0.89
2022-12-12T07:31:31.558Z,-0.73
2022-12-12T07:33:59.011Z,-0.78
2022-12-12T07:36:26.578Z,-0.75
2022-12-12T07:38:53.891Z,-0.79
2022-12-12T07:41:21.627Z,-0.85
2022-12-12T07:43:51.023Z,-0.81
2022-12-12T07:46:21.789Z,-0.99
2022-12-12T07:48:50.051Z,-0.88
2022-12-12T07:51:18.021Z,-0.67
2022-12-12T07:53:45.555Z,-0.78
2022-12-12T07:56:15.583Z,-0.53
2022-12-12T07:58:42.987Z,-0.49
2022-12-12T08:01:16.587Z,-0.48
2022-12-12T08:03:45.431Z,-0.39
2022-12-12T08:06:14.128Z,-0.39
2022-12-12T08:08:42.997Z,-0.42
2022-12-12T08:11:13.213Z,-0.30
2022-12-12T08:13:41.529Z,-0.45
2022-12-12T08:16:17.405Z,-0.71
2022-12-12T08:18:45.356Z,-0.65
2022-12-12T08:21:15.824Z,-0.60
2022-12-12T08:23:45.713Z,-0.34
2022-12-12T08:26:16.240Z,-0.11
2022-12-12T08:28:45.436Z,-0.10
2022-12-12T08:31:13.747Z,-0.23
2022-12-12T08:33:41.520Z,-0.13
2022-12-12T08:36:17.710Z,-0.03
2022-12-12T08:38:45.630Z,-0.13
2022-12-12T08:41:13.960Z,0.03
2022-12-12T08:43:42.670Z,0.26
2022-12-12T08:46:17.520Z,0.45
2022-12-12T08:48:47.038Z,0.52
2022-12-12T08:51:15.328Z,0.68
2022-12-12T08:53:47.626Z,0.74
2022-12-12T08:56:16.779Z,0.73
2022-12-12T08:58:44.483Z,0.82
2022-12-12T09:01:13.495Z,0.89
2022-12-12T09:03:48.502Z,1.04
2022-12-12T09:06:16.816Z,1.07
2022-12-12T09:08:46.379Z,1.06
2022-12-12T09:11:14.030Z,1.11
2022-12-12T09:13:41.902Z,0.94
2022-12-12T09:16:10.729Z,1.11
2022-12-12T09:18:43.245Z,1.20
2022-12-12T09:21:15.548Z,1.27
2022-12-12T09:23:43.229Z,1.28
2022-12-12T09:26:11.459Z,1.42
2022-12-12T09:28:39.545Z,1.41
2022-12-12T09:31:08.400Z,1.47
2022-12-12T09:33:36.134Z,1.53
2022-12-12T09:36:05.899Z,1.72
2022-12-12T09:38:33.404Z,1.85
2022-12-12T09:41:12.204Z,1.62
2022-12-12T09:43:48.180Z,1.73
2022-12-12T09:46:47.886Z,1.76
2022-12-12T09:49:19.764Z,1.77
2022-12-12T09:51:49.905Z,1.93
2022-12-12T09:54:21.227Z,1.89
2022-12-12T09:57:13.396Z,1.89
2022-12-12T09:59:49.184Z,2.05
2022-12-12T10:02:41.021Z,2.11
2022-12-12T10:05:17.262Z,2.17
2022-12-12T10:07:53.982Z,2.05
2022-12-12T10:10:30.968Z,2.05
2022-12-12T10:13:01.407Z,2.01
2022-12-12T10:15:40.251Z,1.85
2022-12-12T10:18:15.664Z,1.80
2022-12-12T10:20:51.174Z,1.96
2022-12-12T10:23:47.771Z,1.77
2022-12-12T10:26:21.658Z,1.91
2022-12-12T10:28:57.556Z,1.90
2022-12-12T10:32:07.418Z,1.87
2022-12-12T10:34:59.292Z,1.92
2022-12-12T10:37:47.261Z,2.08
2022-12-12T10:40:29.228Z,2.18
2022-12-12T10:43:06.132Z,2.26
2022-12-12T10:46:30.227Z,2.47
2022-12-12T10:48:57.965Z,2.47
2022-12-12T10:51:28.777Z,2.53
2022-12-12T10:53:56.206Z,2.61
2022-12-12T10:56:26.541Z,2.57
2022-12-12T10:58:56.554Z,2.54
2022-12-12T11:02:08.291Z,2.41
2022-12-12T11:04:20.784Z,2.47
2022-12-12T11:06:51.717Z,2.58
2022-12-12T11:09:27.941Z,2.71
2022-12-12T11:12:17.711Z,2.76
2022-12-12T11:14:50.916Z,2.81
2022-12-12T11:17:25.455Z,2.76
2022-12-12T11:19:57.074Z,2.77
2022-12-12T11:22:25.164Z,2.86
2022-12-12T11:24:53.269Z,2.97
2022-12-12T11:27:34.380Z,3.00
2022-12-12T11:30:06.456Z,3.08
2022-12-12T11:32:44.073Z,3.07
2022-12-12T11:35:27.921Z,3.09
2022-12-12T11:38:00.248Z,3.10
2022-12-12T11:40:30.551Z,3.20
2022-12-12T11:43:25.173Z,3.23
2022-12-12T11:46:04.510Z,3.30
2022-12-12T11:48:54.859Z,3.47
2022-12-12T11:51:43.381Z,3.52
2022-12-12T11:54:23.815Z,3.53
2022-12-12T11:57:03.457Z,3.59
2022-12-12T11:59:39.857Z,3.56
2022-12-12T12:02:25.562Z,3.57
2022-12-12T12:05:30.711Z,3.65
2022-12-12T12:08:55.477Z,3.62
2022-12-12T12:11:41.016Z,3.69
2022-12-12T12:14:33.944Z,3.76
2022-12-12T12:17:31.019Z,3.76
2022-12-12T12:20:17.167Z,3.89
2022-12-12T12:22:50.186Z,3.96
2022-12-12T12:25:34.098Z,3.86
2022-12-12T12:28:16.749Z,3.84
2022-12-12T12:31:00.394Z,3.81
2022-12-12T12:33:53.965Z,3.97
2022-12-12T12:36:52.312Z,3.89
2022-12-12T12:39:53.750Z,4.01
2022-12-12T12:42:30.001Z,3.96
2022-12-12T12:45:04.228Z,4.06
2022-12-12T12:47:49.216Z,3.98
2022-12-12T12:50:22.201Z,3.85
2022-12-12T12:53:31.449Z,3.85
2022-12-12T12:56:07.812Z,3.85
2022-12-12T12:58:44.391Z,3.77
2022-12-12T13:01:16.735Z,3.82
2022-12-12T13:03:54.584Z,3.73
2022-12-12T13:06:57.440Z,3.69
2022-12-12T13:09:34.221Z,3.45
2022-12-12T13:12:24.511Z,3.51
2022-12-12T13:14:57.831Z,3.39
2022-12-12T13:17:46.302Z,3.24
2022-12-12T13:20:17.586Z,3.25
2022-12-12T13:23:08.164Z,3.37
2022-12-12T13:25:46.516Z,3.13
2022-12-12T13:28:23.247Z,3.11
2022-12-12T13:31:14.115Z,3.11
2022-12-12T13:33:47.804Z,2.97
2022-12-12T13:36:26.134Z,3.08
2022-12-12T13:38:58.050Z,3.11
2022-12-12T13:41:25.695Z,3.06
2022-12-12T13:43:58.423Z,3.01
2022-12-12T13:46:28.885Z,3.06
2022-12-12T13:49:02.416Z,3.08
2022-12-12T13:51:31.009Z,2.99
2022-12-12T13:54:12.704Z,2.96
2022-12-12T13:56:46.013Z,2.70
2022-12-12T13:59:22.375Z,2.78
2022-12-12T14:02:02.587Z,2.60
2022-12-12T14:04:33.718Z,2.64
2022-12-12T14:07:14.130Z,2.68
2022-12-12T14:09:49.808Z,2.84
2022-12-12T14:12:20.439Z,2.86
2022-12-12T14:15:03.080Z,2.83
2022-12-12T14:17:40.088Z,2.83
2022-12-12T14:20:41.732Z,2.72
2022-12-12T14:23:33.577Z,2.65
2022-12-12T14:26:01.684Z,2.63
2022-12-12T14:28:33.765Z,2.55
2022-12-12T14:31:33.505Z,2.52
2022-12-12T14:34:16.838Z,2.55
2022-12-12T14:37:02.661Z,2.42
2022-12-12T14:39:53.165Z,2.47
2022-12-12T14:43:19.208Z,2.28
2022-12-12T14:45:53.633Z,2.38
2022-12-12T14:48:27.111Z,2.38
2022-12-12T14:51:02.088Z,2.44
2022-12-12T14:53:38.485Z,2.45
2022-12-12T14:56:21.718Z,2.50
2022-12-12T14:58:55.204Z,2.55
2022-12-12T15:01:35.114Z,2.43
2022-12-12T15:04:08.940Z,2.56
2022-12-12T15:06:44.117Z,2.52
2022-12-12T15:09:20.097Z,2.51
2022-12-12T15:11:48.676Z,2.56
2022-12-12T15:14:20.283Z,2.45
2022-12-12T15:16:50.894Z,2.42
2022-12-12T15:19:26.436Z,2.29
2022-12-12T15:21:54.400Z,2.23
2022-12-12T15:24:37.249Z,2.29
2022-12-12T15:27:06.025Z,2.17
2022-12-12T15:29:35.581Z,1.99
2022-12-12T15:32:07.398Z,2.09
2022-12-12T15:34:39.697Z,2.25
2022-12-12T15:37:23.883Z,2.25
2022-12-12T15:40:17.656Z,1.99
2022-12-12T15:42:49.334Z,2.07
2022-12-12T15:45:30.616Z,1.91
2022-12-12T15:47:58.641Z,2.16
2022-12-12T15:50:30.741Z,2.12
2022-12-12T15:53:01.861Z,2.21
2022-12-12T15:55:30.241Z,2.35
2022-12-12T15:58:00.136Z,2.28
2022-12-12T16:00:38.852Z,2.33
2022-12-12T16:03:06.270Z,2.35
2022-12-12T16:05:40.051Z,2.24
2022-12-12T16:08:36.023Z,2.25
2022-12-12T16:11:07.303Z,2.33
2022-12-12T16:13:39.887Z,2.36
2022-12-12T16:16:34.771Z,2.38
2022-12-12T16:19:03.039Z,2.38
2022-12-12T16:21:31.252Z,2.24
2022-12-12T16:24:19.867Z,2.28
2022-12-12T16:26:47.428Z,2.31
2022-12-12T16:29:14.802Z,2.25
2022-12-12T16:31:44.213Z,2.17
2022-12-12T16:34:11.657Z,2.18
2022-12-12T16:36:42.228Z,2.30
2022-12-12T16:39:13.877Z,2.21
2022-12-12T16:41:41.677Z,2.39
2022-12-12T16:44:09.092Z,2.21
2022-12-12T16:46:36.498Z,2.05
2022-12-12T16:49:05.119Z,2.24
2022-12-12T16:51:35.268Z,2.03
2022-12-12T16:54:02.716Z,2.19
2022-12-12T16:56:30.169Z,2.39
2022-12-12T16:58:57.615Z,2.41
2022-12-12T17:01:25.152Z,2.41
2022-12-12T17:03:52.677Z,2.36
2022-12-12T17:06:20.078Z,2.21
2022-12-12T17:08:47.416Z,2.25
2022-12-12T17:11:15.125Z,2.46
2022-12-12T17:13:48.145Z,2.36
2022-12-12T17:16:15.769Z,2.34
2022-12-12T17:18:43.220Z,2.28
2022-12-12T17:21:11.020Z,2.22
2022-12-12T17:23:39.865Z,2.27
2022-12-12T17:26:07.423Z,2.42
2022-12-12T17:28:35.327Z,2.11
2022-12-12T17:31:08.007Z,2.12
2022-12-12T17:33:35.823Z,2.13
2022-12-12T17:36:05.961Z,2.14
2022-12-12T17:38:34.240Z,2.00
2022-12-12T17:41:10.800Z,1.90
2022-12-12T17:43:38.946Z,1.96
2022-12-12T17:46:14.193Z,1.98
2022-12-12T17:48:47.405Z,2.15
2022-12-12T17:51:21.172Z,2.19
2022-12-12T17:53:51.109Z,2.17
2022-12-12T17:56:21.342Z,2.26
2022-12-12T17:58:49.652Z,2.26
2022-12-12T18:01:26.643Z,2.25
2022-12-12T18:03:54.350Z,2.14
2022-12-12T18:06:23.183Z,2.13
2022-12-12T18:08:53.465Z,2.00
2022-12-12T18:11:24.785Z,2.00
2022-12-12T18:13:54.871Z,1.98
2022-12-12T18:16:23.764Z,1.80
2022-12-12T18:18:52.302Z,1.85
2022-12-12T18:21:59.142Z,1.82
2022-12-12T18:24:10.412Z,1.98
2022-12-12T18:26:37.899Z,1.95
2022-12-12T18:29:07.178Z,1.86
2022-12-12T18:31:35.489Z,1.94
2022-12-12T18:34:03.846Z,1.92
2022-12-12T18:36:32.126Z,2.10
2022-12-12T18:39:01.994Z,1.92
2022-12-12T18:41:31.631Z,1.84
2022-12-12T18:44:05.945Z,1.83
2022-12-12T18:46:40.322Z,1.83
2022-12-12T18:49:13.797Z,1.43
2022-12-12T18:51:41.838Z,1.42
2022-12-12T18:54:15.465Z,1.57
2022-12-12T18:56:45.182Z,1.62
2022-12-12T18:59:13.322Z,1.65
2022-12-12T19:01:41.167Z,1.94
2022-12-12T19:04:13.137Z,1.88
2022-12-12T19:06:42.388Z,1.95
2022-12-12T19:09:17.862Z,1.78
2022-12-12T19:11:47.294Z,1.63
2022-12-12T19:14:16.261Z,1.63
2022-12-12T19:16:45.088Z,1.63
2022-12-12T19:19:13.153Z,1.76
2022-12-12T19:21:41.896Z,1.79
2022-12-12T19:24:12.218Z,1.96
2022-12-12T19:26:44.383Z,1.76
2022-12-12T19:29:18.160Z,1.74
2022-12-12T19:31:45.963Z,1.77
2022-12-12T19:34:16.493Z,1.57
2022-12-12T19:36:44.691Z,1.48
2022-12-12T19:39:13.078Z,1.56
2022-12-12T19:41:41.701Z,1.59
2022-12-12T19:44:12.932Z,1.46
2022-12-12T19:46:42.710Z,1.52
2022-12-12T19:49:12.411Z,1.63
2022-12-12T19:51:40.509Z,1.63
2022-12-12T19:54:17.891Z,1.59
2022-12-12T19:56:46.541Z,1.36
2022-12-12T19:59:16.606Z,1.41
2022-12-12T20:01:44.469Z,1.37
2022-12-12T20:04:21.079Z,1.17
2022-12-12T20:06:49.953Z,1.14
2022-12-12T20:09:27.489Z,0.85
2022-12-12T20:12:00.652Z,0.86
2022-12-12T20:14:31.188Z,1.08
2022-12-12T20:16:59.319Z,1.15
2022-12-12T20:19:27.884Z,0.87
2022-12-12T20:22:01.733Z,0.72
2022-12-12T20:24:32.307Z,0.72
2022-12-12T20:27:00.281Z,0.75
2022-12-12T20:29:27.929Z,0.70
2022-12-12T20:31:55.685Z,0.85
2022-12-12T20:34:24.870Z,0.66
2022-12-12T20:36:55.073Z,0.68
2022-12-12T20:39:24.690Z,0.67
2022-12-12T20:41:53.700Z,0.61
2022-12-12T20:44:23.352Z,0.81
2022-12-12T20:46:51.424Z,0.78
2022-12-12T20:49:22.371Z,0.79
2022-12-12T20:51:58.196Z,0.76
2022-12-12T20:54:28.340Z,0.86
2022-12-12T20:56:57.067Z,0.71
2022-12-12T20:59:24.991Z,0.91
2022-12-12T21:01:52.699Z,0.60
2022-12-12T21:04:20.671Z,0.82
2022-12-12T21:06:49.488Z,0.79
2022-12-12T21:09:23.785Z,0.55
2022-12-12T21:11:56.867Z,0.53
2022-12-12T21:14:26.253Z,0.52
2022-12-12T21:16:54.091Z,0.60
2022-12-12T21:19:23.335Z,0.69
2022-12-12T21:21:51.682Z,0.67
2022-12-12T21:24:20.770Z,0.48
2022-12-12T21:26:48.670Z,0.64
2022-12-12T21:29:16.502Z,0.52
2022-12-12T21:31:51.141Z,0.58
2022-12-12T21:34:23.520Z,0.62
2022-12-12T21:36:55.028Z,0.71
2022-12-12T21:39:25.052Z,0.72
2022-12-12T21:41:53.186Z,0.43
2022-12-12T21:44:21.053Z,0.60
2022-12-12T21:46:48.885Z,0.52
2022-12-12T21:49:19.803Z,0.71
2022-12-12T21:51:48.117Z,0.54
2022-12-12T21:54:15.649Z,0.51
2022-12-12T21:56:43.439Z,0.44
2022-12-12T21:59:12.711Z,0.25
2022-12-12T22:01:41.204Z,0.42
2022-12-12T22:04:10.568Z,0.25
2022-12-12T22:06:38.417Z,-0.04
2022-12-12T22:09:09.788Z,-0.16
2022-12-12T22:11:41.918Z,0.06
2022-12-12T22:14:18.931Z,-0.01
2022-12-12T22:16:46.309Z,-0.14
2022-12-12T22:19:15.785Z,-0.09
2022-12-12T22:21:47.473Z,-0.34
2022-12-12T22:24:18.301Z,-0.38
2022-12-12T22:26:48.236Z,-0.40
2022-12-12T22:29:20.103Z,-0.43
2022-12-12T22:31:50.072Z,-0.04
2022-12-12T22:34:21.160Z,-0.10
2022-12-12T22:36:49.305Z,-0.05
2022-12-12T22:39:27.843Z,0.01
2022-12-12T22:41:56.356Z,-0.06
2022-12-12T22:44:25.273Z,-0.20
2022-12-12T22:46:55.204Z,0.06
2022-12-12T22:49:25.852Z,0.06
2022-12-12T22:51:56.272Z,0.10
2022-12-12T22:54:24.869Z,0.17
2022-12-12T22:56:52.567Z,0.23
2022-12-12T22:59:20.001Z,0.31
2022-12-12T23:01:47.413Z,0.37
2022-12-12T23:04:15.356Z,0.41
2022-12-12T23:06:43.236Z,0.41
2022-12-12T23:09:15.733Z,0.49
2022-12-12T23:11:44.467Z,0.51
2022-12-12T23:14:19.685Z,0.56
2022-12-12T23:16:47.644Z,0.48
2022-12-12T23:19:18.417Z,0.42
2022-12-12T23:21:46.144Z,0.32
2022-12-12T23:24:14.088Z,0.34
2022-12-12T23:26:41.742Z,0.27
2022-12-12T23:29:12.978Z,0.30
2022-12-12T23:31:40.394Z,0.32
2022-12-12T23:34:13.513Z,0.33
2022-12-12T23:36:42.266Z,-0.05
2022-12-12T23:39:11.872Z,0.05
2022-12-12T23:41:40.185Z,0.21
2022-12-12T23:44:08.348Z,0.19
2022-12-12T23:46:36.509Z,0.17
2022-12-12T23:49:03.908Z,0.34
2022-12-12T23:51:42.546Z,0.20
2022-12-12T23:54:12.609Z,0.09
2022-12-12T23:56:40.594Z,0.15
2022-12-12T23:59:10.680Z,0.10
